Terminal Aerodrome Forecast
Issued by NWS Paducah, KY

Home | Current Version | Previous Version | Text Only | Print | Product List | Glossary On
Versions: 1 2 3 4 5 6 7 8 9 10 11 12 13 14 15 16 17 18 19 20 21 22
048
FTUS43 KPAH 241734
TAFPAH
TAF
KPAH 241734Z 2418/2518 20009G19KT P6SM BKN080
     FM250300 18006KT 5SM -TSRA BKN030CB
     FM250600 20007KT P6SM -SHRA BKN030
     FM250900 24005KT 5SM BR VCSH OVC013
     FM251200 31006KT P6SM OVC008=

USA.gov is the U.S. government's official web portal to all federal, state and local government web resources and services.